Alma, Michigan
Current Conditions -  °F | °C
As of 9:14 AM on Sunday 23 Nov 2014 (Local Time) from KAMN Reporting Station
Overcast Overcast  
Wind Chill: 43°   Ceiling: 3400
Heat Index: 47°   Visibility: 7mi
Dew Point: 45°   Wind: 9mph
Humidity: 92%   Direction: 190°S
Pressure: 29.83"   Gusts: NA
Location:  43.38°N, 84.66°W
Report Text: KAMN 231414Z AUTO 19008KT 7SM BKN034 BKN044 OVC085 09/07 A2983 RMK AO2 T00850073
Loading
Personal Weather Stations






























Interactive Weather Map New forecast layout! Learn more

10-Day Weather Forecast

Advertisements
Track Severe Weather on mobile